createdAt,value
2019-05-12T00:01:14.538Z,11.03
2019-05-12T00:04:08.256Z,11.03
2019-05-12T00:06:58.664Z,11.03
2019-05-12T00:09:51.632Z,11.03
2019-05-12T00:16:02.560Z,10.99
2019-05-12T00:18:59.820Z,10.99
2019-05-12T00:21:50.516Z,10.99
2019-05-12T00:24:47.906Z,10.98
2019-05-12T00:27:42.416Z,10.98
2019-05-12T00:30:44.238Z,10.97
2019-05-12T00:33:38.599Z,10.98
2019-05-12T00:36:35.184Z,10.96
2019-05-12T00:39:27.897Z,10.96
2019-05-12T00:42:19.614Z,10.94
2019-05-12T00:45:12.295Z,10.94
2019-05-12T00:48:05.491Z,10.93
2019-05-12T00:50:58.522Z,10.91
2019-05-12T00:53:58.036Z,10.89
2019-05-12T00:56:51.814Z,10.86
2019-05-12T00:59:47.982Z,10.82
2019-05-12T01:02:40.607Z,10.82
2019-05-12T01:05:33.330Z,10.81
2019-05-12T01:08:30.628Z,10.77
2019-05-12T01:11:23.596Z,10.76
2019-05-12T01:14:18.476Z,10.75
2019-05-12T01:17:09.674Z,10.73
2019-05-12T01:20:00.305Z,10.71
2019-05-12T01:22:52.485Z,10.66
2019-05-12T01:25:50.744Z,10.63
2019-05-12T01:28:42.674Z,10.59
2019-05-12T01:31:37.812Z,10.57
2019-05-12T01:34:29.760Z,10.54
2019-05-12T01:37:28.063Z,10.52
2019-05-12T01:40:19.059Z,10.49
2019-05-12T01:43:08.910Z,10.48
2019-05-12T01:46:03.529Z,10.48
2019-05-12T01:48:54.948Z,10.46
2019-05-12T01:51:47.670Z,10.45
2019-05-12T01:54:38.035Z,10.45
2019-05-12T01:57:31.087Z,10.43
2019-05-12T02:00:22.586Z,10.42
2019-05-12T02:03:13.476Z,10.43
2019-05-12T02:06:03.592Z,10.41
2019-05-12T02:08:59.532Z,10.41
2019-05-12T02:11:51.235Z,10.40
2019-05-12T02:14:42.032Z,10.38
2019-05-12T02:17:31.423Z,10.39
2019-05-12T02:20:21.512Z,10.39
2019-05-12T02:23:12.190Z,10.36
2019-05-12T02:26:03.942Z,10.35
2019-05-12T02:28:58.445Z,10.33
2019-05-12T02:31:50.293Z,10.32
2019-05-12T02:34:41.023Z,10.31
2019-05-12T02:37:35.801Z,10.27
2019-05-12T02:40:25.414Z,10.26
2019-05-12T02:43:19.914Z,10.23
2019-05-12T02:46:09.965Z,10.19
2019-05-12T02:49:00.089Z,10.16
2019-05-12T02:51:50.037Z,10.15
2019-05-12T02:54:54.485Z,10.12
2019-05-12T02:57:34.205Z,10.09
2019-05-12T03:00:24.242Z,10.07
2019-05-12T03:03:16.377Z,10.04
2019-05-12T03:06:06.395Z,9.99
2019-05-12T03:08:55.243Z,9.96
2019-05-12T03:11:45.733Z,9.93
2019-05-12T03:14:40.176Z,9.89
2019-05-12T03:17:25.716Z,9.84
2019-05-12T03:20:16.064Z,9.81
2019-05-12T03:23:06.771Z,9.79
2019-05-12T03:25:56.733Z,9.76
2019-05-12T03:28:46.596Z,9.72
2019-05-12T03:31:41.296Z,9.66
2019-05-12T03:34:29.775Z,9.64
2019-05-12T03:37:19.673Z,9.59
2019-05-12T03:40:09.561Z,9.57
2019-05-12T03:42:58.739Z,9.54
2019-05-12T03:45:48.494Z,9.51
2019-05-12T03:48:39.689Z,9.47
2019-05-12T03:51:29.922Z,9.45
2019-05-12T03:54:24.388Z,9.40
2019-05-12T03:57:14.977Z,9.39
2019-05-12T04:00:05.433Z,9.36
2019-05-12T04:02:56.441Z,9.31
2019-05-12T04:05:49.309Z,9.30
2019-05-12T04:08:38.699Z,9.28
2019-05-12T04:11:28.095Z,9.23
2019-05-12T04:14:18.456Z,9.23
2019-05-12T04:17:08.829Z,9.19
2019-05-12T04:19:59.175Z,9.17
2019-05-12T04:22:49.007Z,9.15
2019-05-12T04:25:51.216Z,9.13
2019-05-12T04:28:35.126Z,9.11
2019-05-12T04:31:24.895Z,9.11
2019-05-12T04:34:19.160Z,9.08
2019-05-12T04:37:11.016Z,9.06
2019-05-12T04:40:00.531Z,9.04
2019-05-12T04:42:49.206Z,9.03
2019-05-12T04:45:37.941Z,9.02
2019-05-12T04:48:27.209Z,9.01
2019-05-12T04:51:17.734Z,9.00
2019-05-12T04:54:07.559Z,8.99
2019-05-12T04:56:56.970Z,8.97
2019-05-12T04:59:47.307Z,8.96
2019-05-12T05:02:36.738Z,8.97
2019-05-12T05:05:26.751Z,8.97
2019-05-12T05:08:19.641Z,8.99
2019-05-12T05:11:08.529Z,9.01
2019-05-12T05:13:59.046Z,9.02
2019-05-12T05:16:50.068Z,9.04
2019-05-12T05:19:40.023Z,9.06
2019-05-12T05:22:33.201Z,9.09
2019-05-12T05:25:23.670Z,9.11
2019-05-12T05:28:14.591Z,9.15
2019-05-12T05:31:04.582Z,9.19
2019-05-12T05:33:55.757Z,9.23
2019-05-12T05:36:45.270Z,9.27
2019-05-12T05:39:43.180Z,9.30
2019-05-12T05:42:30.691Z,9.32
2019-05-12T05:45:23.344Z,9.36
2019-05-12T05:48:10.260Z,9.38
2019-05-12T05:51:06.769Z,9.40
2019-05-12T05:53:54.035Z,9.44
2019-05-12T05:56:50.714Z,9.50
2019-05-12T05:59:36.862Z,9.57
2019-05-12T06:02:39.407Z,9.67
2019-05-12T06:05:26.314Z,9.77
2019-05-12T06:08:20.896Z,9.89
2019-05-12T06:11:13.815Z,10.03
2019-05-12T06:14:10.771Z,10.16
2019-05-12T06:16:53.822Z,10.28
2019-05-12T06:19:43.861Z,10.38
2019-05-12T06:22:34.327Z,10.47
2019-05-12T06:25:26.439Z,10.53
2019-05-12T06:28:16.422Z,10.60
2019-05-12T06:31:07.456Z,10.68
2019-05-12T06:33:57.152Z,10.72
2019-05-12T06:36:47.257Z,10.78
2019-05-12T06:39:37.651Z,10.83
2019-05-12T06:42:27.161Z,10.87
2019-05-12T06:45:20.281Z,10.94
2019-05-12T06:48:11.087Z,10.99
2019-05-12T06:51:00.125Z,11.07
2019-05-12T06:53:50.602Z,11.12
2019-05-12T06:56:40.341Z,11.19
2019-05-12T06:59:33.871Z,11.32
2019-05-12T07:02:24.479Z,11.46
2019-05-12T07:05:15.442Z,11.63
2019-05-12T07:08:06.099Z,11.81
2019-05-12T07:11:01.824Z,11.99
2019-05-12T07:13:45.802Z,12.09
2019-05-12T07:16:35.033Z,12.20
2019-05-12T07:19:25.683Z,12.36
2019-05-12T07:22:21.970Z,12.53
2019-05-12T07:25:08.485Z,12.70
2019-05-12T07:28:00.778Z,12.84
2019-05-12T07:30:50.525Z,12.97
2019-05-12T07:33:41.912Z,13.08
2019-05-12T07:36:33.360Z,13.23
2019-05-12T07:39:26.822Z,13.41
2019-05-12T07:42:16.504Z,13.61
2019-05-12T07:45:11.542Z,13.75
2019-05-12T07:48:08.152Z,13.86
2019-05-12T07:51:00.421Z,14.05
2019-05-12T07:53:55.174Z,14.24
2019-05-12T07:56:41.005Z,14.42
2019-05-12T07:59:38.784Z,14.57
2019-05-12T08:02:31.424Z,14.71
2019-05-12T08:05:19.772Z,14.82
2019-05-12T08:08:10.671Z,14.95
2019-05-12T08:10:58.010Z,15.11
2019-05-12T08:13:47.841Z,15.26
2019-05-12T08:16:38.173Z,15.45
2019-05-12T08:19:28.762Z,15.55
2019-05-12T08:22:19.006Z,15.60
2019-05-12T08:25:10.424Z,15.62
2019-05-12T08:28:12.321Z,15.62
2019-05-12T08:30:52.697Z,15.66
2019-05-12T08:33:43.823Z,15.85
2019-05-12T08:36:34.968Z,16.07
2019-05-12T08:39:26.352Z,16.24
2019-05-12T08:42:18.630Z,16.31
2019-05-12T08:45:15.209Z,16.32
2019-05-12T08:48:03.859Z,16.26
2019-05-12T08:51:05.285Z,16.13
2019-05-12T08:54:02.585Z,16.05
2019-05-12T08:56:51.150Z,15.98
2019-05-12T08:59:40.046Z,15.97
2019-05-12T09:02:34.909Z,16.04
2019-05-12T09:05:38.062Z,16.12
2019-05-12T09:08:21.222Z,16.21
2019-05-12T09:11:16.932Z,16.32
2019-05-12T09:14:07.156Z,16.44
2019-05-12T09:17:02.741Z,16.47
2019-05-12T09:20:03.635Z,16.50
2019-05-12T09:23:00.685Z,16.53
2019-05-12T09:25:49.784Z,16.60
2019-05-12T09:28:47.477Z,16.77
2019-05-12T09:31:33.658Z,17.01
2019-05-12T09:34:23.593Z,17.31
2019-05-12T09:37:14.272Z,17.63
2019-05-12T09:40:04.764Z,17.96
2019-05-12T09:42:55.022Z,18.25
2019-05-12T09:45:52.087Z,18.44
2019-05-12T09:48:45.634Z,18.57
2019-05-12T09:51:41.243Z,18.71
2019-05-12T09:54:35.419Z,18.86
2019-05-12T09:57:18.135Z,18.94
2019-05-12T10:00:08.675Z,18.96
2019-05-12T10:03:00.646Z,18.98
2019-05-12T10:05:53.412Z,18.91
2019-05-12T10:08:43.643Z,18.83
2019-05-12T10:11:35.700Z,18.74
2019-05-12T10:14:28.821Z,18.66
2019-05-12T10:17:20.220Z,18.58
2019-05-12T10:20:11.046Z,18.49
2019-05-12T10:23:01.319Z,18.44
2019-05-12T10:25:51.094Z,18.40
2019-05-12T10:28:43.733Z,18.38
2019-05-12T10:31:39.236Z,18.40
2019-05-12T10:34:29.248Z,18.50
2019-05-12T10:37:25.380Z,18.70
2019-05-12T10:40:17.474Z,18.87
2019-05-12T10:43:08.931Z,19.04
2019-05-12T10:46:00.225Z,19.23
2019-05-12T10:48:53.941Z,19.28
2019-05-12T10:51:47.587Z,19.27
2019-05-12T10:54:43.309Z,19.24
2019-05-12T10:57:36.327Z,19.33
2019-05-12T11:00:34.160Z,19.47
2019-05-12T11:03:27.344Z,19.70
2019-05-12T11:06:20.758Z,19.89
2019-05-12T11:09:14.953Z,20.09
2019-05-12T11:12:24.415Z,20.27
2019-05-12T11:15:13.639Z,20.45
2019-05-12T11:18:25.170Z,20.57
2019-05-12T11:21:13.645Z,20.71
2019-05-12T11:24:10.814Z,20.88
2019-05-12T11:27:03.915Z,20.99
2019-05-12T11:30:16.751Z,21.18
2019-05-12T11:33:09.232Z,21.39
2019-05-12T11:36:05.962Z,21.57
2019-05-12T11:38:59.691Z,21.72
2019-05-12T11:42:00.505Z,21.89
2019-05-12T11:44:59.390Z,22.06
2019-05-12T11:47:59.128Z,22.27
2019-05-12T11:50:54.674Z,22.43
2019-05-12T11:53:53.543Z,22.57
2019-05-12T11:56:46.451Z,22.69
2019-05-12T11:59:35.898Z,22.79
2019-05-12T12:02:30.276Z,22.88
2019-05-12T12:05:19.021Z,22.92
2019-05-12T12:08:09.486Z,23.01
2019-05-12T12:11:03.840Z,23.09
2019-05-12T12:14:00.386Z,23.15
2019-05-12T12:16:50.318Z,23.26
2019-05-12T12:19:48.527Z,23.36
2019-05-12T12:22:47.607Z,23.41
2019-05-12T12:25:47.806Z,23.43
2019-05-12T12:28:35.760Z,23.46
2019-05-12T12:31:34.705Z,23.51
2019-05-12T12:34:29.761Z,23.54
2019-05-12T12:37:18.762Z,23.59
2019-05-12T12:40:08.274Z,23.63
2019-05-12T12:42:58.840Z,23.68
2019-05-12T12:46:18.221Z,23.70
2019-05-12T12:49:10.362Z,23.74
2019-05-12T12:51:58.484Z,23.75
2019-05-12T12:54:50.073Z,23.81
2019-05-12T12:57:46.519Z,23.76
2019-05-12T13:00:47.952Z,23.84
2019-05-12T13:03:37.117Z,23.82
2019-05-12T13:06:28.617Z,23.88
2019-05-12T13:09:24.545Z,23.86
2019-05-12T13:12:19.593Z,23.84
2019-05-12T13:15:14.400Z,23.85
2019-05-12T13:18:16.812Z,23.87
2019-05-12T13:21:03.388Z,23.86
2019-05-12T13:24:03.628Z,23.89
2019-05-12T13:26:54.310Z,23.89
2019-05-12T13:29:50.535Z,23.88
2019-05-12T13:32:41.094Z,23.88
2019-05-12T13:35:34.190Z,23.86
2019-05-12T13:38:30.418Z,23.89
2019-05-12T13:41:20.226Z,23.92
2019-05-12T13:44:09.902Z,23.90
2019-05-12T13:46:59.585Z,23.92
2019-05-12T13:49:49.011Z,23.88
2019-05-12T13:52:38.497Z,23.85
2019-05-12T13:55:27.593Z,23.86
2019-05-12T13:58:17.080Z,23.84
2019-05-12T14:01:19.947Z,23.88
2019-05-12T14:03:57.063Z,23.91
2019-05-12T14:06:46.222Z,23.81
2019-05-12T14:09:35.319Z,23.86
2019-05-12T14:12:24.563Z,23.86
2019-05-12T14:15:14.392Z,23.89
2019-05-12T14:18:03.850Z,23.95
2019-05-12T14:20:58.471Z,24.01
2019-05-12T14:23:44.133Z,24.01
2019-05-12T14:26:33.445Z,24.06
2019-05-12T14:29:26.558Z,24.17
2019-05-12T14:32:17.602Z,24.26
2019-05-12T14:35:04.305Z,24.35
2019-05-12T14:37:54.172Z,24.44
2019-05-12T14:40:43.614Z,24.50
2019-05-12T14:43:34.064Z,24.52
2019-05-12T14:46:24.198Z,24.59
2019-05-12T14:49:14.195Z,24.66
2019-05-12T14:52:03.657Z,24.71
2019-05-12T14:54:54.158Z,24.71
2019-05-12T14:57:45.078Z,24.75
2019-05-12T15:00:34.444Z,24.79
2019-05-12T15:03:25.274Z,24.79
2019-05-12T15:06:14.313Z,24.76
2019-05-12T15:09:04.834Z,24.80
2019-05-12T15:11:54.024Z,24.85
2019-05-12T15:14:43.877Z,24.93
2019-05-12T15:17:33.796Z,24.98
2019-05-12T15:20:24.103Z,25.01
2019-05-12T15:23:14.404Z,25.06
2019-05-12T15:26:09.535Z,25.16
2019-05-12T15:28:55.907Z,25.22
2019-05-12T15:31:53.099Z,25.26
2019-05-12T15:34:37.272Z,25.27
2019-05-12T15:37:33.841Z,25.32
2019-05-12T15:40:19.642Z,25.32
2019-05-12T15:43:09.397Z,25.39
2019-05-12T15:45:59.762Z,25.43
2019-05-12T15:48:54.571Z,25.40
2019-05-12T15:51:53.846Z,25.40
2019-05-12T15:54:45.831Z,25.44
2019-05-12T15:57:33.815Z,25.43
2019-05-12T16:00:27.142Z,25.49
2019-05-12T16:03:16.580Z,25.50
2019-05-12T16:06:11.852Z,25.51
2019-05-12T16:09:03.978Z,25.52
2019-05-12T16:11:54.018Z,25.57
2019-05-12T16:14:44.205Z,25.60
2019-05-12T16:17:34.258Z,25.56
2019-05-12T16:20:23.064Z,25.52
2019-05-12T16:23:17.146Z,25.45
2019-05-12T16:26:11.008Z,25.45
2019-05-12T16:29:07.164Z,25.47
2019-05-12T16:32:01.186Z,25.42
2019-05-12T16:34:51.349Z,25.48
2019-05-12T16:37:43.978Z,25.50
2019-05-12T16:40:39.587Z,25.43
2019-05-12T16:43:29.509Z,25.42
2019-05-12T16:46:20.492Z,25.33
2019-05-12T16:49:10.229Z,25.27
2019-05-12T16:52:03.492Z,25.26
2019-05-12T16:54:51.360Z,25.16
2019-05-12T16:57:51.167Z,25.04
2019-05-12T17:00:45.221Z,24.85
2019-05-12T17:03:39.095Z,24.46
2019-05-12T17:06:35.182Z,24.14
2019-05-12T17:09:33.191Z,23.88
2019-05-12T17:12:32.217Z,23.60
2019-05-12T17:15:23.538Z,23.33
2019-05-12T17:18:16.986Z,23.02
2019-05-12T17:21:08.800Z,22.75
2019-05-12T17:24:03.797Z,22.46
2019-05-12T17:26:54.896Z,22.12
2019-05-12T17:29:47.276Z,21.84
2019-05-12T17:32:37.594Z,21.55
2019-05-12T17:35:31.599Z,21.33
2019-05-12T17:38:25.463Z,21.07
2019-05-12T17:41:18.099Z,20.85
2019-05-12T17:44:10.460Z,20.59
2019-05-12T17:47:00.443Z,20.40
2019-05-12T17:49:53.871Z,20.21
2019-05-12T17:52:50.427Z,20.01
2019-05-12T17:55:50.997Z,19.79
2019-05-12T17:58:44.211Z,19.62
2019-05-12T18:01:31.418Z,19.44
2019-05-12T18:04:26.472Z,19.26
2019-05-12T18:07:19.236Z,19.07
2019-05-12T18:10:15.021Z,18.94
2019-05-12T18:13:04.180Z,18.80
2019-05-12T18:15:54.080Z,18.63
2019-05-12T18:18:43.662Z,18.50
2019-05-12T18:21:36.641Z,18.44
2019-05-12T18:24:25.969Z,18.26
2019-05-12T18:27:16.147Z,18.13
2019-05-12T18:30:05.459Z,18.06
2019-05-12T18:33:04.168Z,17.96
2019-05-12T18:35:45.706Z,17.85
2019-05-12T18:38:35.400Z,17.70
2019-05-12T18:41:33.660Z,17.52
2019-05-12T18:44:31.277Z,17.39
2019-05-12T18:47:31.823Z,17.28
2019-05-12T18:50:15.069Z,17.19
2019-05-12T18:53:04.934Z,17.06
2019-05-12T18:55:55.570Z,16.94
2019-05-12T18:58:46.143Z,16.77
2019-05-12T19:01:35.771Z,16.66
2019-05-12T19:04:33.953Z,16.57
2019-05-12T19:07:39.746Z,16.47
2019-05-12T19:10:33.337Z,16.37
2019-05-12T19:13:26.764Z,16.27
2019-05-12T19:16:18.156Z,16.16
2019-05-12T19:19:24.390Z,16.05
2019-05-12T19:22:15.180Z,15.97
2019-05-12T19:25:05.170Z,15.84
2019-05-12T19:28:05.369Z,15.75
2019-05-12T19:30:50.162Z,15.65
2019-05-12T19:33:43.871Z,15.54
2019-05-12T19:36:35.945Z,15.46
2019-05-12T19:39:30.425Z,15.35
2019-05-12T19:42:24.443Z,15.26
2019-05-12T19:45:21.422Z,15.16
2019-05-12T19:48:07.313Z,15.08
2019-05-12T19:51:05.883Z,14.97
2019-05-12T19:53:52.867Z,14.88
2019-05-12T19:56:43.512Z,14.79
2019-05-12T19:59:35.952Z,14.71
2019-05-12T20:02:29.792Z,14.63
2019-05-12T20:05:24.813Z,14.53
2019-05-12T20:08:14.793Z,14.45
2019-05-12T20:11:04.578Z,14.37
2019-05-12T20:13:56.233Z,14.28
2019-05-12T20:16:50.615Z,14.23
2019-05-12T20:19:45.524Z,14.17
2019-05-12T20:22:39.135Z,14.08
2019-05-12T20:25:34.327Z,14.01
2019-05-12T20:28:24.496Z,13.94
2019-05-12T20:31:26.545Z,13.87
2019-05-12T20:34:18.143Z,13.79
2019-05-12T20:37:16.818Z,13.73
2019-05-12T20:40:13.452Z,13.64
2019-05-12T20:43:09.342Z,13.57
2019-05-12T20:45:58.195Z,13.51
2019-05-12T20:48:53.969Z,13.45
2019-05-12T20:51:44.400Z,13.39
2019-05-12T20:54:34.508Z,13.32
2019-05-12T20:57:24.513Z,13.26
2019-05-12T21:00:15.374Z,13.20
2019-05-12T21:03:08.885Z,13.15
2019-05-12T21:06:04.341Z,13.09
2019-05-12T21:08:56.808Z,13.02
2019-05-12T21:11:46.878Z,12.98
2019-05-12T21:14:36.581Z,12.92
2019-05-12T21:17:39.626Z,12.86
2019-05-12T21:20:18.848Z,12.82
2019-05-12T21:23:09.679Z,12.78
2019-05-12T21:26:00.310Z,12.71
2019-05-12T21:28:53.874Z,12.68
2019-05-12T21:31:44.701Z,12.62
2019-05-12T21:34:39.203Z,12.56
2019-05-12T21:37:45.124Z,12.52
2019-05-12T21:40:30.598Z,12.47
2019-05-12T21:43:21.461Z,12.43
2019-05-12T21:46:15.302Z,12.38
2019-05-12T21:49:10.336Z,12.33
2019-05-12T21:52:03.062Z,12.29
2019-05-12T21:54:55.408Z,12.23
2019-05-12T21:57:44.087Z,12.19
2019-05-12T22:00:40.921Z,12.14
2019-05-12T22:03:29.101Z,12.10
2019-05-12T22:06:24.648Z,12.04
2019-05-12T22:09:14.618Z,12.01
2019-05-12T22:12:03.904Z,11.95
2019-05-12T22:14:54.260Z,11.90
2019-05-12T22:18:04.736Z,11.85
2019-05-12T22:21:00.958Z,11.81
2019-05-12T22:23:51.297Z,11.74
2019-05-12T22:26:40.545Z,11.71
2019-05-12T22:29:31.317Z,11.65
2019-05-12T22:32:25.312Z,11.60
2019-05-12T22:35:13.243Z,11.56
2019-05-12T22:38:09.211Z,11.50
2019-05-12T22:40:57.740Z,11.46
2019-05-12T22:43:46.211Z,11.42
2019-05-12T22:46:36.470Z,11.35
2019-05-12T22:49:26.011Z,11.31
2019-05-12T22:52:17.467Z,11.27
2019-05-12T22:55:07.200Z,11.21
2019-05-12T22:57:57.375Z,11.17
2019-05-12T23:00:51.373Z,11.12
2019-05-12T23:03:45.388Z,11.08
2019-05-12T23:06:35.875Z,11.03
2019-05-12T23:09:25.936Z,11.00
2019-05-12T23:12:18.502Z,10.96
2019-05-12T23:15:08.990Z,10.92
2019-05-12T23:18:04.046Z,10.86
2019-05-12T23:20:54.145Z,10.81
2019-05-12T23:23:49.808Z,10.78
2019-05-12T23:26:42.195Z,10.76
2019-05-12T23:29:33.777Z,10.70
2019-05-12T23:32:24.300Z,10.66
2019-05-12T23:35:14.531Z,10.64
2019-05-12T23:38:04.632Z,10.59
2019-05-12T23:40:55.214Z,10.53
2019-05-12T23:43:45.482Z,10.50
2019-05-12T23:46:36.908Z,10.47
2019-05-12T23:49:29.390Z,10.45
2019-05-12T23:52:24.052Z,10.40
2019-05-12T23:55:17.369Z,10.35
2019-05-12T23:58:08.272Z,10.32
